Time;durP1;ratioP1;P1;durP2;ratioP2;P2;SDS_P1;SDS_P2;PMS_P1;PMS_P2;Temp;Humidity;BMP_temperature;BMP_pressure;BME280_temperature;BME280_humidity;BME280_pressure;Samples;Min_cycle;Max_cycle;Signal;HPM_P1;HPM_P2
2023/11/01 00:01:25;;;;;;;30.75;20.02;;;9.70;99.90;;;;;;5068837;28;20044;-68
2023/11/01 00:03:51;;;;;;;30.00;19.20;;;9.60;99.90;;;;;;5065993;28;20492;-68
2023/11/01 00:06:16;;;;;;;31.83;20.27;;;9.80;99.90;;;;;;5069326;28;20127;-68
2023/11/01 00:08:42;;;;;;;33.30;20.52;;;9.70;99.90;;;;;;5065034;28;20036;-68
2023/11/01 00:11:08;;;;;;;29.23;19.17;;;9.80;99.90;;;;;;5067505;28;20051;-68
2023/11/01 00:13:34;;;;;;;34.85;20.92;;;9.90;99.90;;;;;;5064401;28;20037;-68
2023/11/01 00:15:59;;;;;;;34.72;20.67;;;9.90;99.90;;;;;;5068319;28;20079;-68
2023/11/01 00:18:25;;;;;;;32.60;21.20;;;9.90;99.90;;;;;;5095912;28;20049;-68
2023/11/01 00:20:51;;;;;;;33.03;19.58;;;10.10;99.90;;;;;;5067590;28;20440;-68
2023/11/01 00:23:16;;;;;;;32.85;21.92;;;10.10;99.90;;;;;;5067028;28;20094;-68
2023/11/01 00:25:42;;;;;;;36.60;22.20;;;10.00;99.90;;;;;;5098555;28;20441;-68
2023/11/01 00:28:08;;;;;;;35.78;21.13;;;10.10;99.90;;;;;;5066916;28;20062;-68
2023/11/01 00:30:33;;;;;;;30.88;20.90;;;10.10;99.90;;;;;;5065592;28;20056;-68
2023/11/01 00:32:59;;;;;;;27.42;20.27;;;10.20;99.90;;;;;;5066808;28;20093;-68
2023/11/01 00:35:25;;;;;;;31.25;20.70;;;10.20;99.90;;;;;;5069637;28;20040;-68
2023/11/01 00:37:50;;;;;;;30.75;21.05;;;10.20;99.90;;;;;;5065543;28;20044;-68
2023/11/01 00:40:16;;;;;;;29.75;21.10;;;10.20;99.90;;;;;;5066331;28;20047;-68
2023/11/01 00:42:42;;;;;;;31.25;20.27;;;10.30;99.90;;;;;;5066314;28;20044;-68
2023/11/01 00:45:08;;;;;;;33.85;20.85;;;10.30;99.90;;;;;;5065035;28;20064;-68
2023/11/01 00:47:34;;;;;;;30.08;20.88;;;10.30;99.90;;;;;;5098392;28;20157;-68
2023/11/01 00:50:00;;;;;;;30.30;20.60;;;10.40;99.90;;;;;;5067259;28;20476;-68
2023/11/01 00:52:25;;;;;;;26.88;19.75;;;10.30;99.90;;;;;;5069310;28;20530;-68
2023/11/01 00:54:51;;;;;;;30.33;19.88;;;10.30;99.90;;;;;;5099656;27;20465;-68
2023/11/01 00:57:17;;;;;;;28.38;20.67;;;10.20;99.90;;;;;;5047016;28;20832;-68
2023/11/01 00:59:42;;;;;;;35.85;20.55;;;10.20;99.90;;;;;;5068489;28;20625;-68
2023/11/01 01:02:08;;;;;;;25.60;18.85;;;10.20;99.90;;;;;;5064485;28;20123;-68
2023/11/01 01:04:33;;;;;;;27.65;18.52;;;10.20;99.90;;;;;;5066537;28;20043;-68
2023/11/01 01:06:59;;;;;;;25.23;18.30;;;10.20;99.90;;;;;;5065012;28;20110;-68
2023/11/01 01:09:25;;;;;;;24.15;17.38;;;10.20;99.90;;;;;;5068866;28;20028;-68
2023/11/01 01:11:50;;;;;;;27.38;19.00;;;10.20;99.90;;;;;;5064771;28;20048;-68
2023/11/01 01:14:17;;;;;;;26.45;17.92;;;10.20;99.90;;;;;;5066485;28;20103;-68
2023/11/01 01:16:43;;;;;;;23.00;17.42;;;10.20;99.90;;;;;;5065470;28;20076;-68
2023/11/01 01:19:09;;;;;;;24.30;17.77;;;10.20;99.90;;;;;;5062426;28;20079;-68
2023/11/01 01:21:35;;;;;;;23.45;19.20;;;10.10;99.90;;;;;;5066244;28;20119;-69
2023/11/01 01:24:02;;;;;;;24.42;17.20;;;10.20;99.90;;;;;;5067365;28;20087;-68
2023/11/01 01:26:29;;;;;;;23.42;17.27;;;10.20;99.90;;;;;;5065994;28;20041;-68
2023/11/01 01:28:54;;;;;;;22.00;17.48;;;10.20;99.90;;;;;;5066394;28;20041;-68
2023/11/01 01:31:21;;;;;;;24.38;16.67;;;10.10;99.90;;;;;;5059876;28;21496;-68
2023/11/01 01:33:47;;;;;;;20.83;17.25;;;10.10;99.90;;;;;;5063979;28;20082;-68
2023/11/01 01:36:12;;;;;;;26.08;16.73;;;10.20;99.90;;;;;;5065626;28;20063;-68
2023/11/01 01:38:38;;;;;;;20.77;16.00;;;10.20;99.90;;;;;;5065093;28;20055;-68
2023/11/01 01:41:04;;;;;;;22.70;16.77;;;10.10;99.90;;;;;;5081635;28;20396;-68
2023/11/01 01:43:30;;;;;;;19.27;15.40;;;10.10;99.90;;;;;;5065609;28;20056;-68
2023/11/01 01:46:08;;;;;;;23.92;16.02;;;10.10;99.90;;;;;;5065041;28;20490;-69
2023/11/01 01:48:35;;;;;;;21.73;15.30;;;10.00;99.90;;;;;;5066628;28;20041;-68
2023/11/01 01:51:02;;;;;;;20.67;16.40;;;10.10;99.90;;;;;;5062316;28;20136;-68
2023/11/01 01:53:28;;;;;;;18.33;14.63;;;10.10;99.90;;;;;;5097124;28;20085;-68
2023/11/01 01:55:54;;;;;;;18.50;14.80;;;10.00;99.90;;;;;;5068415;28;20044;-68
2023/11/01 01:58:21;;;;;;;18.13;14.48;;;10.00;99.90;;;;;;5066651;28;20071;-68
2023/11/01 02:00:48;;;;;;;19.13;15.43;;;10.00;99.90;;;;;;5062915;28;20037;-68
2023/11/01 02:03:15;;;;;;;16.35;14.50;;;10.00;99.90;;;;;;5065136;28;20097;-68
2023/11/01 02:05:41;;;;;;;20.10;14.52;;;10.00;99.90;;;;;;5065569;28;20044;-68
2023/11/01 02:08:07;;;;;;;19.45;14.90;;;10.10;99.90;;;;;;5098553;28;20070;-68
2023/11/01 02:10:33;;;;;;;16.10;13.57;;;10.10;99.90;;;;;;5066627;28;20416;-68
2023/11/01 02:13:09;;;;;;;18.63;14.38;;;10.10;99.90;;;;;;5064201;28;20079;-68
2023/11/01 02:15:35;;;;;;;18.10;13.40;;;10.00;99.90;;;;;;5065940;28;20048;-68
2023/11/01 02:18:00;;;;;;;17.38;15.50;;;10.10;99.90;;;;;;5059116;28;20033;-68
2023/11/01 02:20:27;;;;;;;17.27;15.15;;;10.00;99.90;;;;;;5065020;28;20033;-68
2023/11/01 02:22:55;;;;;;;16.65;14.73;;;10.10;99.90;;;;;;5065888;28;20044;-68
2023/11/01 02:25:21;;;;;;;18.45;14.70;;;10.10;99.90;;;;;;5066062;28;20053;-68
2023/11/01 02:27:47;;;;;;;16.67;14.68;;;10.10;99.90;;;;;;5065105;28;20051;-68
2023/11/01 02:30:16;;;;;;;16.60;13.82;;;10.10;99.90;;;;;;5064707;28;20391;-68
2023/11/01 02:32:52;;;;;;;19.48;14.45;;;10.10;99.90;;;;;;5101502;28;20111;-68
2023/11/01 02:35:18;;;;;;;17.27;14.73;;;10.20;99.90;;;;;;5069770;28;20086;-68
2023/11/01 02:37:44;;;;;;;17.65;13.68;;;10.10;99.90;;;;;;5067235;28;20045;-68
2023/11/01 02:40:10;;;;;;;15.98;13.27;;;10.10;99.90;;;;;;5069260;28;20059;-68
2023/11/01 02:42:40;;;;;;;19.92;14.55;;;10.10;99.90;;;;;;5069791;28;20356;-68
2023/11/01 02:45:09;;;;;;;20.92;14.40;;;10.10;99.90;;;;;;5068301;28;20055;-69
2023/11/01 02:47:36;;;;;;;20.45;14.80;;;10.20;99.90;;;;;;5066047;28;20040;-69
2023/11/01 02:50:03;;;;;;;18.88;15.07;;;10.10;99.90;;;;;;5067929;28;20032;-68
2023/11/01 02:52:30;;;;;;;18.50;14.30;;;10.20;99.90;;;;;;5067203;28;20128;-68
2023/11/01 02:54:56;;;;;;;16.23;13.65;;;10.10;99.90;;;;;;5071205;28;20053;-68
2023/11/01 02:57:21;;;;;;;17.83;13.85;;;10.20;99.90;;;;;;5064815;28;20028;-69
2023/11/01 02:59:47;;;;;;;13.95;12.45;;;10.20;99.90;;;;;;5069941;28;20068;-68
2023/11/01 03:02:13;;;;;;;17.17;13.32;;;10.20;99.90;;;;;;5069830;28;20059;-68
2023/11/01 03:04:38;;;;;;;20.48;13.38;;;10.20;99.90;;;;;;5103631;27;20045;-68
2023/11/01 03:07:05;;;;;;;17.50;13.82;;;10.20;99.90;;;;;;5068576;28;20040;-68
2023/11/01 03:09:31;;;;;;;18.83;13.45;;;10.20;99.90;;;;;;5065331;28;20164;-68
2023/11/01 03:11:56;;;;;;;22.05;14.80;;;10.30;99.90;;;;;;5068552;28;20475;-69
2023/11/01 03:14:22;;;;;;;20.35;13.75;;;10.30;99.90;;;;;;5068652;28;20045;-68
2023/11/01 03:16:48;;;;;;;20.30;15.05;;;10.30;99.90;;;;;;5068566;28;20044;-68
2023/11/01 03:19:13;;;;;;;22.83;15.23;;;10.40;99.90;;;;;;5067242;28;20509;-68
2023/11/01 03:21:42;;;;;;;19.98;14.48;;;10.30;99.90;;;;;;5067596;28;20045;-68
2023/11/01 03:24:07;;;;;;;22.05;15.70;;;10.40;99.90;;;;;;5066661;28;20462;-68
2023/11/01 03:26:34;;;;;;;17.65;14.63;;;10.40;99.90;;;;;;5068121;28;20050;-68
2023/11/01 03:29:00;;;;;;;22.30;14.43;;;10.40;99.90;;;;;;5067212;28;20037;-68
2023/11/01 03:31:26;;;;;;;27.30;16.15;;;10.40;99.90;;;;;;5069021;28;20069;-69
2023/11/01 03:33:51;;;;;;;23.33;15.05;;;10.40;99.90;;;;;;5067651;28;20032;-68
2023/11/01 03:36:17;;;;;;;22.52;15.20;;;10.40;99.90;;;;;;5068186;28;20045;-68
2023/11/01 03:38:43;;;;;;;20.73;15.70;;;10.40;99.90;;;;;;5066040;28;20048;-68
2023/11/01 03:41:10;;;;;;;24.08;15.00;;;10.40;99.90;;;;;;5066879;28;20084;-68
2023/11/01 03:43:36;;;;;;;19.70;14.68;;;10.40;99.90;;;;;;5068196;28;20036;-68
2023/11/01 03:46:02;;;;;;;26.13;15.85;;;10.50;99.90;;;;;;5068818;28;20098;-68
2023/11/01 03:48:28;;;;;;;22.30;15.18;;;10.50;99.90;;;;;;5067944;28;20028;-68
2023/11/01 03:50:54;;;;;;;24.77;16.17;;;10.50;99.90;;;;;;5068276;28;20035;-68
2023/11/01 03:53:19;;;;;;;23.27;15.65;;;10.50;99.90;;;;;;5069807;28;20509;-68
2023/11/01 03:55:45;;;;;;;21.85;15.32;;;10.60;99.90;;;;;;5064580;28;20071;-68
2023/11/01 03:58:11;;;;;;;25.00;15.95;;;10.60;99.90;;;;;;5067567;28;20495;-69
2023/11/01 04:00:36;;;;;;;22.23;15.40;;;10.60;99.90;;;;;;5066044;28;20033;-69
2023/11/01 04:03:02;;;;;;;21.70;15.77;;;10.60;99.90;;;;;;5068510;28;20073;-68
2023/11/01 04:05:28;;;;;;;21.40;15.48;;;10.60;99.90;;;;;;5067840;28;20045;-68
2023/11/01 04:07:53;;;;;;;25.13;15.70;;;10.60;99.90;;;;;;5063430;28;20523;-68
2023/11/01 04:10:19;;;;;;;24.35;14.77;;;10.70;99.90;;;;;;5068376;28;20112;-68
2023/11/01 04:12:45;;;;;;;24.60;15.77;;;10.70;99.90;;;;;;5066065;28;20044;-68
2023/11/01 04:15:12;;;;;;;22.92;16.08;;;10.70;99.90;;;;;;5095782;28;20055;-68
2023/11/01 04:17:39;;;;;;;21.10;16.63;;;10.70;99.90;;;;;;5065438;28;20051;-68
2023/11/01 04:20:08;;;;;;;26.92;16.20;;;10.70;99.90;;;;;;5067339;28;20033;-68
2023/11/01 04:22:38;;;;;;;20.98;15.90;;;10.70;99.90;;;;;;5067718;28;20064;-68
2023/11/01 04:25:10;;;;;;;23.63;14.95;;;10.70;99.90;;;;;;5069439;28;20120;-68
2023/11/01 04:27:39;;;;;;;24.55;15.38;;;10.70;99.90;;;;;;5067697;28;20521;-68
2023/11/01 04:30:06;;;;;;;23.48;15.00;;;10.70;99.90;;;;;;5064532;28;20051;-68
2023/11/01 04:32:32;;;;;;;23.27;15.38;;;10.70;99.90;;;;;;5063715;28;20097;-69
2023/11/01 04:34:58;;;;;;;21.45;15.05;;;10.80;99.90;;;;;;5067852;28;20032;-69
2023/11/01 04:37:25;;;;;;;21.33;14.50;;;10.80;99.90;;;;;;5066268;28;20044;-68
2023/11/01 04:39:50;;;;;;;19.52;14.15;;;10.80;99.90;;;;;;5066456;28;20051;-68
2023/11/01 04:42:16;;;;;;;21.77;14.25;;;10.80;99.90;;;;;;5066656;28;20040;-69
2023/11/01 04:44:45;;;;;;;22.05;14.05;;;10.80;99.90;;;;;;5065829;28;20423;-69
2023/11/01 04:47:12;;;;;;;20.98;14.98;;;10.80;99.90;;;;;;5062258;28;20086;-69
2023/11/01 04:49:37;;;;;;;23.52;14.02;;;10.80;99.90;;;;;;5065946;28;20044;-68
2023/11/01 04:52:04;;;;;;;24.70;13.93;;;10.80;99.90;;;;;;5066463;28;20387;-69
2023/11/01 04:54:30;;;;;;;18.35;13.30;;;10.80;99.90;;;;;;5066386;28;20037;-69
2023/11/01 04:56:55;;;;;;;29.45;14.10;;;10.90;99.90;;;;;;5066422;28;20486;-69
2023/11/01 04:59:21;;;;;;;22.55;12.77;;;10.90;99.90;;;;;;5098531;27;20041;-68
2023/11/01 05:01:47;;;;;;;19.45;13.18;;;10.80;99.90;;;;;;5064397;28;20063;-68
2023/11/01 05:04:13;;;;;;;17.50;11.50;;;10.80;99.90;;;;;;5063382;28;20044;-68
2023/11/01 05:06:39;;;;;;;15.82;11.88;;;10.90;99.90;;;;;;5066569;28;20040;-68
2023/11/01 05:09:05;;;;;;;18.77;11.85;;;10.90;99.90;;;;;;5065913;28;20033;-69
2023/11/01 05:11:31;;;;;;;23.08;12.60;;;10.90;99.90;;;;;;5067522;28;20028;-69
2023/11/01 05:13:57;;;;;;;20.73;11.65;;;10.90;99.90;;;;;;5065446;28;20086;-68
2023/11/01 05:16:22;;;;;;;19.90;12.40;;;10.90;99.90;;;;;;5065465;28;20040;-68
2023/11/01 05:18:49;;;;;;;21.83;11.73;;;10.90;99.90;;;;;;5064420;28;20127;-68
2023/11/01 05:21:15;;;;;;;20.92;10.98;;;10.80;99.90;;;;;;5096353;28;20036;-68
2023/11/01 05:23:41;;;;;;;21.58;10.90;;;10.80;99.90;;;;;;5064953;28;20513;-68
2023/11/01 05:26:14;;;;;;;20.17;11.38;;;10.90;99.90;;;;;;5069856;28;20063;-69
2023/11/01 05:28:40;;;;;;;14.40;9.52;;;10.80;99.90;;;;;;5066703;28;20079;-69
2023/11/01 05:31:06;;;;;;;17.88;10.20;;;10.80;99.90;;;;;;5066030;28;20044;-69
2023/11/01 05:33:31;;;;;;;17.88;10.38;;;10.80;99.90;;;;;;5041978;28;20052;-69
2023/11/01 05:35:57;;;;;;;13.07;9.05;;;10.80;99.90;;;;;;5054286;28;20048;-69
2023/11/01 05:38:27;;;;;;;15.40;9.10;;;10.80;99.90;;;;;;5062691;28;20040;-68
2023/11/01 05:40:52;;;;;;;22.58;9.13;;;10.80;99.90;;;;;;5063364;28;20040;-68
2023/11/01 05:43:18;;;;;;;14.77;8.65;;;10.80;99.90;;;;;;5067087;28;20066;-68
2023/11/01 05:45:43;;;;;;;17.08;8.82;;;10.90;99.90;;;;;;5068171;28;20399;-68
2023/11/01 05:48:09;;;;;;;12.25;8.10;;;10.90;99.90;;;;;;5067682;28;20041;-68
2023/11/01 05:50:36;;;;;;;16.27;8.60;;;10.90;99.90;;;;;;5065400;28;20032;-68
2023/11/01 05:53:09;;;;;;;16.02;9.25;;;10.80;99.90;;;;;;5064194;28;20068;-68
2023/11/01 05:55:36;;;;;;;12.43;8.20;;;10.90;99.90;;;;;;5065460;28;20067;-68
2023/11/01 05:58:02;;;;;;;14.45;7.18;;;10.90;99.90;;;;;;5065658;28;20052;-68
2023/11/01 06:00:28;;;;;;;14.88;7.57;;;10.90;99.90;;;;;;5065049;28;20051;-68
2023/11/01 06:02:54;;;;;;;13.70;7.15;;;10.90;99.90;;;;;;5061495;28;20041;-68
2023/11/01 06:05:22;;;;;;;12.38;7.63;;;10.90;99.90;;;;;;5065266;28;20509;-68
2023/11/01 06:07:48;;;;;;;8.95;6.35;;;11.00;99.90;;;;;;5098386;28;20040;-68
2023/11/01 06:10:14;;;;;;;11.85;6.22;;;11.00;99.90;;;;;;5069109;28;20040;-68
2023/11/01 06:12:39;;;;;;;11.25;6.25;;;10.90;99.90;;;;;;5066222;28;20131;-68
2023/11/01 06:15:05;;;;;;;12.57;6.60;;;11.00;99.90;;;;;;5069962;28;20131;-68
2023/11/01 06:17:31;;;;;;;16.80;6.38;;;11.00;99.90;;;;;;5066507;28;20058;-68
2023/11/01 06:19:56;;;;;;;8.63;5.43;;;11.00;99.90;;;;;;5067938;28;20040;-68
2023/11/01 06:22:22;;;;;;;16.50;6.85;;;11.00;99.90;;;;;;5069551;28;20044;-68
2023/11/01 06:24:48;;;;;;;12.57;6.13;;;11.00;99.90;;;;;;5070232;28;22109;-68
2023/11/01 06:27:13;;;;;;;12.30;5.88;;;11.00;99.90;;;;;;5068958;28;20094;-68
2023/11/01 06:29:42;;;;;;;12.20;5.70;;;11.00;99.90;;;;;;5066596;28;20113;-68
2023/11/01 06:32:09;;;;;;;10.40;5.68;;;11.00;99.90;;;;;;5069620;28;20048;-68
2023/11/01 06:34:34;;;;;;;10.15;5.05;;;11.00;99.90;;;;;;5068059;28;20039;-68
2023/11/01 06:37:00;;;;;;;11.52;6.18;;;11.00;99.90;;;;;;5069650;28;20475;-68
2023/11/01 06:39:26;;;;;;;11.05;5.57;;;11.00;99.90;;;;;;5051961;28;20045;-68
2023/11/01 06:41:51;;;;;;;8.98;5.50;;;11.10;99.90;;;;;;5067719;28;20570;-68
2023/11/01 06:44:17;;;;;;;11.02;5.90;;;11.00;99.90;;;;;;5071122;28;20068;-68
2023/11/01 06:46:42;;;;;;;10.90;5.10;;;11.10;99.90;;;;;;5069287;28;20045;-68
2023/11/01 06:49:08;;;;;;;8.48;5.35;;;11.10;99.90;;;;;;5067882;28;20094;-68
2023/11/01 06:51:33;;;;;;;9.10;5.68;;;11.10;99.90;;;;;;5071388;28;20115;-68
2023/11/01 06:54:00;;;;;;;11.18;5.45;;;11.10;99.90;;;;;;5068961;28;20052;-68
2023/11/01 06:56:25;;;;;;;7.97;5.90;;;11.20;99.90;;;;;;5065088;28;20044;-68
2023/11/01 06:58:51;;;;;;;16.52;6.03;;;11.10;99.90;;;;;;5066113;28;20051;-68
2023/11/01 07:01:16;;;;;;;9.73;5.20;;;11.20;99.90;;;;;;5065065;28;20040;-68
2023/11/01 07:03:42;;;;;;;5.85;5.22;;;11.20;99.90;;;;;;5067092;28;20423;-69
2023/11/01 07:06:08;;;;;;;8.57;5.28;;;11.20;99.90;;;;;;5066188;28;20044;-68
2023/11/01 07:08:34;;;;;;;6.13;5.00;;;11.20;99.90;;;;;;5063751;28;20623;-68
2023/11/01 07:11:00;;;;;;;7.72;5.15;;;11.30;99.90;;;;;;5067489;28;20033;-68
2023/11/01 07:13:26;;;;;;;8.50;4.80;;;11.20;99.90;;;;;;5066983;28;20159;-68
2023/11/01 07:15:51;;;;;;;9.38;4.53;;;11.30;99.90;;;;;;5065722;28;20051;-68
2023/11/01 07:18:17;;;;;;;7.15;4.35;;;11.30;99.90;;;;;;5096072;28;20390;-68
2023/11/01 07:20:43;;;;;;;10.43;4.68;;;11.30;99.90;;;;;;5066107;28;20574;-68
2023/11/01 07:23:09;;;;;;;5.20;3.97;;;11.30;99.90;;;;;;5063792;28;20118;-69
2023/11/01 07:25:35;;;;;;;7.40;4.18;;;11.30;99.90;;;;;;5079162;27;20044;-69
2023/11/01 07:28:01;;;;;;;7.10;4.07;;;11.30;99.90;;;;;;5060727;28;20040;-69
2023/11/01 07:30:27;;;;;;;6.15;3.97;;;11.60;99.90;;;;;;5055594;28;20087;-69
2023/11/01 07:32:52;;;;;;;5.70;3.97;;;11.40;99.90;;;;;;5065256;28;20051;-68
2023/11/01 07:35:18;;;;;;;6.78;4.40;;;11.50;99.90;;;;;;5062914;28;20042;-69
2023/11/01 07:37:44;;;;;;;4.57;4.07;;;11.40;99.90;;;;;;5056263;28;20052;-69
2023/11/01 07:40:10;;;;;;;5.82;4.15;;;11.40;99.90;;;;;;5052029;28;20048;-68
2023/11/01 07:42:38;;;;;;;9.02;3.47;;;11.40;99.90;;;;;;5048633;28;20082;-68
2023/11/01 07:45:08;;;;;;;5.72;3.45;;;11.40;99.90;;;;;;5046824;28;20067;-69
2023/11/01 07:47:35;;;;;;;5.88;3.65;;;11.40;99.90;;;;;;5053071;28;20123;-68
2023/11/01 07:50:04;;;;;;;4.65;3.20;;;11.40;99.90;;;;;;5062214;28;20037;-69
2023/11/01 07:52:29;;;;;;;5.88;3.75;;;11.40;99.90;;;;;;5074533;28;20040;-69
2023/11/01 07:54:55;;;;;;;4.20;3.10;;;11.50;99.90;;;;;;5051111;28;20086;-68
2023/11/01 07:57:21;;;;;;;3.63;3.33;;;11.50;99.90;;;;;;5047851;28;20086;-69
2023/11/01 07:59:46;;;;;;;5.82;2.92;;;11.50;99.90;;;;;;5049638;28;20041;-69
2023/11/01 08:02:12;;;;;;;2.42;2.22;;;11.50;99.90;;;;;;5048301;28;20074;-69
2023/11/01 08:04:37;;;;;;;4.82;3.03;;;11.50;99.90;;;;;;5047879;28;20105;-69
2023/11/01 08:07:03;;;;;;;3.58;2.50;;;11.50;99.90;;;;;;5051102;28;20085;-68
2023/11/01 08:09:29;;;;;;;6.05;2.67;;;11.50;99.90;;;;;;5048591;28;20093;-68
2023/11/01 08:11:55;;;;;;;2.90;2.58;;;11.50;99.90;;;;;;5053327;28;20487;-69
2023/11/01 08:14:20;;;;;;;3.00;2.50;;;11.50;99.90;;;;;;5077959;28;20133;-68
2023/11/01 08:16:47;;;;;;;2.70;2.10;;;11.60;99.90;;;;;;5060017;28;20086;-69
2023/11/01 08:19:15;;;;;;;3.53;2.60;;;11.50;99.90;;;;;;5047130;28;20114;-69
2023/11/01 08:21:41;;;;;;;2.97;2.60;;;11.60;99.90;;;;;;5048298;28;20048;-69
2023/11/01 08:24:07;;;;;;;4.38;2.70;;;11.60;99.90;;;;;;5051458;28;20048;-68
2023/11/01 08:26:33;;;;;;;6.38;2.92;;;11.60;99.90;;;;;;5052201;28;20036;-69
2023/11/01 08:28:59;;;;;;;2.92;2.65;;;11.70;99.90;;;;;;5052034;28;21806;-68
2023/11/01 08:31:24;;;;;;;3.28;3.00;;;11.60;99.90;;;;;;5053890;28;20170;-68
2023/11/01 08:33:50;;;;;;;3.60;3.28;;;11.70;99.90;;;;;;5048921;28;20044;-69
2023/11/01 08:36:16;;;;;;;3.17;2.88;;;11.80;99.90;;;;;;5051755;28;20131;-69
2023/11/01 08:38:42;;;;;;;3.45;3.05;;;11.80;99.90;;;;;;5050411;28;20040;-69
2023/11/01 08:41:09;;;;;;;3.63;3.33;;;11.70;99.90;;;;;;5050558;28;20032;-68
2023/11/01 08:43:35;;;;;;;3.67;3.38;;;11.70;99.90;;;;;;5047339;28;20052;-69
2023/11/01 08:46:01;;;;;;;5.10;3.40;;;11.70;99.90;;;;;;5049317;28;20047;-68
2023/11/01 08:48:27;;;;;;;3.97;3.55;;;11.80;99.90;;;;;;5045731;28;20044;-68
2023/11/01 08:50:53;;;;;;;4.10;3.50;;;11.80;99.90;;;;;;5046011;28;20153;-69
2023/11/01 08:53:19;;;;;;;3.60;3.30;;;11.90;99.90;;;;;;5047759;28;20036;-68
2023/11/01 08:55:44;;;;;;;3.85;3.55;;;12.10;99.90;;;;;;5049580;28;20577;-68
2023/11/01 08:58:10;;;;;;;4.97;3.60;;;11.90;99.90;;;;;;5048201;28;20402;-69
2023/11/01 09:00:36;;;;;;;4.65;4.22;;;11.90;99.90;;;;;;5048306;28;20044;-68
2023/11/01 09:03:02;;;;;;;8.82;4.97;;;12.00;99.90;;;;;;5049404;28;20548;-69
2023/11/01 09:05:27;;;;;;;6.95;5.65;;;12.00;99.90;;;;;;5030969;28;20048;-68
2023/11/01 09:07:53;;;;;;;6.75;5.75;;;12.10;99.90;;;;;;5052950;28;20773;-68
2023/11/01 09:10:18;;;;;;;6.05;5.43;;;12.10;99.90;;;;;;5047069;28;20048;-68
2023/11/01 09:12:44;;;;;;;10.55;5.82;;;12.10;99.90;;;;;;5044507;28;20071;-68
2023/11/01 09:15:10;;;;;;;8.82;6.75;;;12.20;99.90;;;;;;5048158;28;21056;-68
2023/11/01 09:17:36;;;;;;;9.65;6.55;;;12.20;99.90;;;;;;5061726;28;20036;-68
2023/11/01 09:20:03;;;;;;;10.65;6.57;;;12.20;99.90;;;;;;5051149;28;20622;-68
2023/11/01 09:22:30;;;;;;;10.32;7.40;;;12.30;99.90;;;;;;5084278;28;20059;-68
2023/11/01 09:24:56;;;;;;;12.18;7.00;;;12.30;99.90;;;;;;5050087;28;20036;-68
2023/11/01 09:27:21;;;;;;;11.35;7.47;;;12.30;99.90;;;;;;5048588;28;20231;-68
2023/11/01 09:29:47;;;;;;;10.73;7.38;;;12.40;99.90;;;;;;5048420;28;20494;-68
2023/11/01 09:32:13;;;;;;;13.27;7.68;;;12.40;99.90;;;;;;5075038;28;20048;-68
2023/11/01 09:34:39;;;;;;;10.68;7.10;;;12.50;99.90;;;;;;5049421;28;20082;-69
2023/11/01 09:37:05;;;;;;;11.35;7.00;;;12.50;99.90;;;;;;5049802;28;20056;-68
2023/11/01 09:39:31;;;;;;;14.98;7.25;;;12.50;99.90;;;;;;5049391;28;20049;-68
2023/11/01 09:42:05;;;;;;;12.75;7.25;;;12.80;99.90;;;;;;5051057;28;20055;-68
2023/11/01 09:44:31;;;;;;;12.88;7.18;;;12.60;99.90;;;;;;5046209;28;20037;-68
2023/11/01 09:46:58;;;;;;;12.88;6.53;;;12.70;99.90;;;;;;5045579;28;20093;-68
2023/11/01 09:49:23;;;;;;;11.90;7.35;;;12.70;99.90;;;;;;5076345;28;20529;-68
2023/11/01 09:51:50;;;;;;;17.27;7.28;;;12.80;99.90;;;;;;5047220;28;20045;-69
2023/11/01 09:54:17;;;;;;;10.15;5.43;;;12.70;99.90;;;;;;5049492;28;20044;-68
2023/11/01 09:56:44;;;;;;;11.93;6.43;;;12.90;99.90;;;;;;5047602;28;20041;-68
2023/11/01 09:59:11;;;;;;;14.65;5.78;;;12.90;99.90;;;;;;5047277;28;20118;-68
2023/11/01 10:01:37;;;;;;;12.18;5.40;;;13.10;99.90;;;;;;5050341;28;20495;-68
2023/11/01 10:04:04;;;;;;;12.90;4.78;;;13.00;99.90;;;;;;5048839;28;20052;-68
2023/11/01 10:06:32;;;;;;;14.45;4.80;;;13.00;99.90;;;;;;5046908;28;20159;-68
2023/11/01 10:08:58;;;;;;;12.20;5.20;;;13.00;99.90;;;;;;5049591;28;20029;-68
2023/11/01 10:11:24;;;;;;;16.95;4.50;;;13.10;99.90;;;;;;5050471;28;20047;-68
2023/11/01 10:13:50;;;;;;;15.50;4.65;;;13.20;99.90;;;;;;5052754;28;20041;-69
2023/11/01 10:16:16;;;;;;;16.33;4.95;;;13.20;99.90;;;;;;5051223;28;20040;-69
2023/11/01 10:18:42;;;;;;;13.45;3.88;;;13.20;99.90;;;;;;5049281;28;20834;-68
2023/11/01 10:21:09;;;;;;;11.60;3.78;;;13.20;99.90;;;;;;5046217;28;20041;-68
2023/11/01 10:23:35;;;;;;;9.80;3.28;;;13.30;99.90;;;;;;5049473;28;20074;-69
2023/11/01 10:26:02;;;;;;;11.30;3.75;;;13.20;99.90;;;;;;5044852;28;20056;-68
2023/11/01 10:28:28;;;;;;;17.55;5.05;;;13.20;99.90;;;;;;5046905;28;20117;-68
2023/11/01 10:30:54;;;;;;;14.80;3.38;;;13.30;99.90;;;;;;5049441;28;20071;-68
2023/11/01 10:33:22;;;;;;;15.63;3.95;;;13.30;99.90;;;;;;5077467;28;20118;-69
2023/11/01 10:36:03;;;;;;;9.10;2.90;;;13.30;99.90;;;;;;5050966;28;20052;-68
2023/11/01 10:38:31;;;;;;;10.35;2.88;;;13.40;99.90;;;;;;5048577;28;20475;-68
2023/11/01 10:40:59;;;;;;;11.88;2.90;;;13.50;99.90;;;;;;5046345;28;20072;-68
2023/11/01 10:43:27;;;;;;;11.35;3.20;;;13.50;99.90;;;;;;5052072;28;20050;-69
2023/11/01 10:45:58;;;;;;;9.60;2.75;;;13.50;99.90;;;;;;5051936;28;20376;-68
2023/11/01 10:48:25;;;;;;;9.85;2.58;;;13.50;99.90;;;;;;5063205;28;20075;-69
2023/11/01 10:50:51;;;;;;;10.23;3.00;;;13.50;99.90;;;;;;5047074;28;20191;-69
2023/11/01 10:53:22;;;;;;;12.93;3.25;;;13.60;99.90;;;;;;5050961;28;20115;-69
2023/11/01 10:55:55;;;;;;;11.20;3.42;;;13.60;99.90;;;;;;5051680;28;20055;-69
2023/11/01 10:58:24;;;;;;;9.60;2.28;;;13.60;99.90;;;;;;5079820;28;21564;-68
2023/11/01 11:01:15;;;;;;;12.07;2.00;;;13.60;99.90;;;;;;5052894;28;20036;-69
2023/11/01 11:04:29;;;;;;;13.25;2.40;;;13.60;99.90;;;;;;5049430;28;20053;-69
2023/11/01 11:07:11;;;;;;;11.25;2.55;;;13.80;99.90;;;;;;5047797;28;20490;-69
2023/11/01 11:09:37;;;;;;;10.70;2.85;;;13.90;99.90;;;;;;5085070;28;20476;-68
2023/11/01 11:12:15;;;;;;;11.05;2.45;;;14.20;99.90;;;;;;5051199;28;20070;-68
2023/11/01 11:14:59;;;;;;;14.40;2.17;;;14.00;99.90;;;;;;5060037;28;20036;-68
2023/11/01 11:17:25;;;;;;;8.13;2.33;;;14.40;99.90;;;;;;5051824;28;20072;-68
2023/11/01 11:20:06;;;;;;;10.68;2.45;;;14.10;99.90;;;;;;5067126;28;20048;-68
2023/11/01 11:23:02;;;;;;;11.80;2.45;;;14.20;99.90;;;;;;5050008;28;20051;-69
2023/11/01 11:25:50;;;;;;;9.40;1.73;;;14.00;99.90;;;;;;5056297;28;21636;-69
2023/11/01 11:28:18;;;;;;;12.45;2.50;;;13.90;99.90;;;;;;5066607;28;20074;-68
2023/11/01 11:30:47;;;;;;;11.73;2.95;;;13.80;99.90;;;;;;5065087;28;20144;-68
2023/11/01 11:33:14;;;;;;;12.60;2.70;;;13.90;99.90;;;;;;5059180;28;20049;-69
2023/11/01 11:35:43;;;;;;;13.07;3.33;;;13.90;99.90;;;;;;5064493;28;20036;-68
2023/11/01 11:38:34;;;;;;;9.00;2.00;;;13.90;99.90;;;;;;5063768;28;20049;-68
2023/11/01 11:41:23;;;;;;;10.55;1.98;;;13.90;99.90;;;;;;5065371;28;20139;-68
2023/11/01 11:44:08;;;;;;;6.03;1.55;;;14.00;99.90;;;;;;5065717;28;20055;-68
2023/11/01 11:46:39;;;;;;;7.57;3.40;;;14.00;99.90;;;;;;5050281;28;20133;-68
2023/11/01 11:49:23;;;;;;;6.72;1.67;;;14.10;99.90;;;;;;5066685;28;20048;-69
2023/11/01 11:51:54;;;;;;;6.30;1.63;;;14.20;99.90;;;;;;5063861;28;20706;-68
2023/11/01 11:54:21;;;;;;;9.95;2.30;;;14.20;99.90;;;;;;5068085;28;20040;-68
2023/11/01 11:56:52;;;;;;;9.10;2.15;;;14.10;99.90;;;;;;5065046;28;20049;-68
2023/11/01 11:59:20;;;;;;;5.50;1.58;;;14.10;99.90;;;;;;5054516;28;20946;-68
2023/11/01 12:01:48;;;;;;;10.27;1.55;;;14.10;99.90;;;;;;5054471;28;20449;-68
2023/11/01 12:04:14;;;;;;;10.95;1.40;;;14.20;99.90;;;;;;5051694;28;20048;-68
2023/11/01 12:06:47;;;;;;;9.07;1.73;;;14.10;99.90;;;;;;5056268;28;20048;-68
2023/11/01 12:09:17;;;;;;;12.30;2.17;;;14.20;99.90;;;;;;5055940;28;20051;-68
2023/11/01 12:11:47;;;;;;;10.25;2.38;;;14.20;99.90;;;;;;5048749;28;20071;-68
2023/11/01 12:14:18;;;;;;;6.45;1.40;;;14.30;99.90;;;;;;5053361;28;20048;-68
2023/11/01 12:16:44;;;;;;;5.60;1.33;;;14.40;99.90;;;;;;5050766;28;20055;-68
2023/11/01 12:19:21;;;;;;;6.80;1.60;;;14.40;99.90;;;;;;5047442;28;20554;-68
2023/11/01 12:22:00;;;;;;;6.80;1.08;;;14.30;99.90;;;;;;5050862;28;20145;-68
2023/11/01 12:24:38;;;;;;;5.82;1.10;;;14.30;99.90;;;;;;5048495;28;20039;-68
2023/11/01 12:27:08;;;;;;;7.95;1.83;;;14.30;99.90;;;;;;5037345;28;20040;-68
2023/11/01 12:29:50;;;;;;;9.95;1.50;;;14.30;99.90;;;;;;5050241;28;20876;-68
2023/11/01 12:32:28;;;;;;;8.25;1.45;;;14.20;99.90;;;;;;5053260;28;20094;-68
2023/11/01 12:34:53;;;;;;;6.63;1.83;;;14.30;99.90;;;;;;5051509;28;20040;-68
2023/11/01 12:37:27;;;;;;;8.30;1.70;;;14.50;99.90;;;;;;5050356;28;20071;-68